createdAt,value
2023-01-26T00:02:14.131Z,17.87
2023-01-26T00:04:42.080Z,17.43
2023-01-26T00:07:11.404Z,18.50
2023-01-26T00:09:39.351Z,16.90
2023-01-26T00:12:07.984Z,16.50
2023-01-26T00:14:49.897Z,16.87
2023-01-26T00:17:25.960Z,16.00
2023-01-26T00:19:56.029Z,16.10
2023-01-26T00:22:26.636Z,16.57
2023-01-26T00:24:54.640Z,16.07
2023-01-26T00:27:22.608Z,15.70
2023-01-26T00:29:50.550Z,16.67
2023-01-26T00:32:18.481Z,15.53
2023-01-26T00:34:46.491Z,14.43
2023-01-26T00:37:14.517Z,15.23
2023-01-26T00:39:43.817Z,15.33
2023-01-26T00:42:13.874Z,15.17
2023-01-26T00:44:43.464Z,14.70
2023-01-26T00:47:13.417Z,14.77
2023-01-26T00:49:41.383Z,15.37
2023-01-26T00:52:09.341Z,15.50
2023-01-26T00:54:37.327Z,15.30
2023-01-26T00:57:06.805Z,15.10
2023-01-26T00:59:34.884Z,15.80
2023-01-26T01:02:03.245Z,14.47
2023-01-26T01:04:31.588Z,15.30
2023-01-26T01:06:59.853Z,15.20
2023-01-26T01:09:28.100Z,15.97
2023-01-26T01:11:56.132Z,15.33
2023-01-26T01:14:25.514Z,16.10
2023-01-26T01:16:53.518Z,15.37
2023-01-26T01:19:21.459Z,15.63
2023-01-26T01:21:49.499Z,15.77
2023-01-26T01:24:17.536Z,16.23
2023-01-26T01:26:45.536Z,16.20
2023-01-26T01:29:14.824Z,17.13
2023-01-26T01:31:44.269Z,16.50
2023-01-26T01:34:12.401Z,16.77
2023-01-26T01:36:40.376Z,16.63
2023-01-26T01:39:08.424Z,17.20
2023-01-26T01:41:36.610Z,16.50
2023-01-26T01:44:15.986Z,16.27
2023-01-26T01:46:48.747Z,16.90
2023-01-26T01:49:21.254Z,17.17
2023-01-26T01:51:53.819Z,17.10
2023-01-26T01:54:28.818Z,17.57
2023-01-26T01:57:01.682Z,17.10
2023-01-26T01:59:32.402Z,16.73
2023-01-26T02:02:01.782Z,17.80
2023-01-26T02:04:30.093Z,16.80
2023-01-26T02:07:01.385Z,17.77
2023-01-26T02:09:51.219Z,18.13
2023-01-26T02:12:23.296Z,19.00
2023-01-26T02:14:54.068Z,18.47
2023-01-26T02:17:23.536Z,18.90
2023-01-26T02:20:00.502Z,19.33
2023-01-26T02:22:38.754Z,17.33
2023-01-26T02:25:14.838Z,18.60
2023-01-26T02:27:44.492Z,19.07
2023-01-26T02:30:15.048Z,18.67
2023-01-26T02:32:42.995Z,19.07
2023-01-26T02:35:11.112Z,19.50
2023-01-26T02:37:39.067Z,19.47
2023-01-26T02:40:12.308Z,20.70
2023-01-26T02:42:41.954Z,19.90
2023-01-26T02:45:15.255Z,19.27
2023-01-26T02:47:44.918Z,19.03
2023-01-26T02:50:12.894Z,19.40
2023-01-26T02:52:41.473Z,19.43
2023-01-26T02:55:25.515Z,17.47
2023-01-26T02:57:55.091Z,16.37
2023-01-26T03:00:25.845Z,17.67
2023-01-26T03:02:56.929Z,17.90
2023-01-26T03:05:25.254Z,17.17
2023-01-26T03:07:53.458Z,17.50
2023-01-26T03:10:24.206Z,19.70
2023-01-26T03:12:52.188Z,17.53
2023-01-26T03:15:37.865Z,18.50
2023-01-26T03:18:26.967Z,17.47
2023-01-26T03:21:12.552Z,17.20
2023-01-26T03:23:57.995Z,16.07
2023-01-26T03:26:43.399Z,16.90
2023-01-26T03:29:11.390Z,16.47
2023-01-26T03:31:39.457Z,17.30
2023-01-26T03:34:09.059Z,15.90
2023-01-26T03:36:38.011Z,15.43
2023-01-26T03:39:06.213Z,14.97
2023-01-26T03:41:51.562Z,14.67
2023-01-26T03:44:37.218Z,15.77
2023-01-26T03:47:22.749Z,15.47
2023-01-26T03:50:09.999Z,14.33
2023-01-26T03:52:55.751Z,15.73
2023-01-26T03:55:41.406Z,16.17
2023-01-26T03:58:09.656Z,16.00
2023-01-26T04:00:37.754Z,16.37
2023-01-26T04:03:23.126Z,16.20
2023-01-26T04:06:16.323Z,17.30
2023-01-26T04:08:44.772Z,16.87
2023-01-26T04:11:12.780Z,16.87
2023-01-26T04:13:58.478Z,16.50
2023-01-26T04:16:43.591Z,16.50
2023-01-26T04:19:29.137Z,16.60
2023-01-26T04:22:00.507Z,15.70
2023-01-26T04:24:28.556Z,16.10
2023-01-26T04:26:56.564Z,16.13
2023-01-26T04:29:24.557Z,16.37
2023-01-26T04:31:52.559Z,16.00
2023-01-26T04:34:20.566Z,15.00
2023-01-26T04:36:48.556Z,16.20
2023-01-26T04:39:17.885Z,16.33
2023-01-26T04:41:45.928Z,16.97
2023-01-26T04:44:13.942Z,18.30
2023-01-26T04:46:41.955Z,18.40
2023-01-26T04:49:10.324Z,19.03
2023-01-26T04:51:38.294Z,19.93
2023-01-26T04:54:06.360Z,19.33
2023-01-26T04:56:36.913Z,19.63
2023-01-26T04:59:07.843Z,19.27
2023-01-26T05:01:35.906Z,19.30
2023-01-26T05:04:05.887Z,19.37
2023-01-26T05:06:34.085Z,20.93
2023-01-26T05:09:02.080Z,22.50
2023-01-26T05:11:30.027Z,22.37
2023-01-26T05:13:59.340Z,25.57
2023-01-26T05:16:27.517Z,24.37
2023-01-26T05:18:55.771Z,24.10
2023-01-26T05:21:27.566Z,24.83
2023-01-26T05:23:55.800Z,23.10
2023-01-26T05:26:23.779Z,25.50
2023-01-26T05:28:51.716Z,25.77
2023-01-26T05:31:21.097Z,24.77
2023-01-26T05:33:49.056Z,24.60
2023-01-26T05:36:17.043Z,23.50
2023-01-26T05:38:45.021Z,23.07
2023-01-26T05:41:12.985Z,22.33
2023-01-26T05:43:40.928Z,21.33
2023-01-26T05:46:08.935Z,21.77
2023-01-26T05:48:38.273Z,21.67
2023-01-26T05:51:06.570Z,22.53
2023-01-26T05:53:34.531Z,20.57
2023-01-26T05:56:02.528Z,21.43
2023-01-26T05:58:30.483Z,20.93
2023-01-26T06:00:58.424Z,20.43
2023-01-26T06:03:26.375Z,20.23
2023-01-26T06:05:56.359Z,19.77
2023-01-26T06:08:24.343Z,20.73
2023-01-26T06:10:52.285Z,20.17
2023-01-26T06:13:20.232Z,21.53
2023-01-26T06:15:48.196Z,22.23
2023-01-26T06:18:16.163Z,21.93
2023-01-26T06:20:44.570Z,22.63
2023-01-26T06:23:13.881Z,24.00
2023-01-26T06:25:41.873Z,23.03
2023-01-26T06:28:09.858Z,22.87
2023-01-26T06:30:38.113Z,24.57
2023-01-26T06:33:06.969Z,23.50
2023-01-26T06:35:35.983Z,22.97
2023-01-26T06:38:03.981Z,22.40
2023-01-26T06:40:33.359Z,24.37
2023-01-26T06:43:01.329Z,21.87
2023-01-26T06:45:29.320Z,21.07
2023-01-26T06:47:57.338Z,22.50
2023-01-26T06:50:32.551Z,21.07
2023-01-26T06:53:01.641Z,21.77
2023-01-26T06:55:36.077Z,21.53
2023-01-26T06:58:04.027Z,20.93
2023-01-26T07:00:32.002Z,20.57
2023-01-26T07:02:59.971Z,22.47
2023-01-26T07:05:27.956Z,22.43
2023-01-26T07:07:55.980Z,22.10
2023-01-26T07:10:23.958Z,23.07
2023-01-26T07:12:53.251Z,23.27
2023-01-26T07:15:21.190Z,23.83
2023-01-26T07:17:49.222Z,21.50
2023-01-26T07:20:17.739Z,23.53
2023-01-26T07:22:45.736Z,22.77
2023-01-26T07:25:13.869Z,23.37
2023-01-26T07:27:41.856Z,23.27
2023-01-26T07:30:14.357Z,22.67
2023-01-26T07:32:42.545Z,21.50
2023-01-26T07:35:10.701Z,22.63
2023-01-26T07:37:38.695Z,23.10
2023-01-26T07:40:07.837Z,21.27
2023-01-26T07:42:35.772Z,22.13
2023-01-26T07:45:03.725Z,21.93
2023-01-26T07:47:33.035Z,20.17
2023-01-26T07:50:01.017Z,20.63
2023-01-26T07:52:28.984Z,21.40
2023-01-26T07:54:56.947Z,21.17
2023-01-26T07:57:24.940Z,22.67
2023-01-26T07:59:52.884Z,21.77
2023-01-26T08:02:20.856Z,22.83
2023-01-26T08:04:50.245Z,22.10
2023-01-26T08:07:18.460Z,22.93
2023-01-26T08:09:46.463Z,23.43
2023-01-26T08:12:14.479Z,21.70
2023-01-26T08:14:47.014Z,22.33
2023-01-26T08:17:17.365Z,23.30
2023-01-26T08:19:45.546Z,21.73
2023-01-26T08:22:14.951Z,21.37
2023-01-26T08:24:42.920Z,20.83
2023-01-26T08:27:10.865Z,20.90
2023-01-26T08:29:38.952Z,21.93
2023-01-26T08:32:08.293Z,21.53
2023-01-26T08:34:36.336Z,22.00
2023-01-26T08:37:04.928Z,22.10
2023-01-26T08:39:34.265Z,22.07
2023-01-26T08:42:02.279Z,21.33
2023-01-26T08:44:30.248Z,21.87
2023-01-26T08:46:58.208Z,22.30
2023-01-26T08:49:26.234Z,22.10
2023-01-26T08:51:54.203Z,21.37
2023-01-26T08:54:22.184Z,21.07
2023-01-26T08:56:51.505Z,20.47
2023-01-26T08:59:19.502Z,21.57
2023-01-26T09:01:51.154Z,22.40
2023-01-26T09:04:19.325Z,23.93
2023-01-26T09:06:47.286Z,22.17
2023-01-26T09:09:15.395Z,22.03
2023-01-26T09:11:43.432Z,22.53
2023-01-26T09:14:12.770Z,22.97
2023-01-26T09:16:40.861Z,22.17
2023-01-26T09:19:08.867Z,21.87
2023-01-26T09:21:36.807Z,22.77
2023-01-26T09:24:05.257Z,23.10
2023-01-26T09:26:33.435Z,23.80
2023-01-26T09:29:01.468Z,24.37
2023-01-26T09:31:30.884Z,24.33
2023-01-26T09:33:58.999Z,24.27
2023-01-26T09:36:27.013Z,26.67
2023-01-26T09:38:55.005Z,25.80
2023-01-26T09:41:45.546Z,26.57
2023-01-26T09:44:20.085Z,27.60
2023-01-26T09:47:01.944Z,27.63
2023-01-26T09:49:38.441Z,27.80
2023-01-26T09:52:11.504Z,26.60
2023-01-26T09:54:42.790Z,25.97
2023-01-26T09:57:14.845Z,25.63
2023-01-26T09:59:49.994Z,24.80
2023-01-26T10:02:34.265Z,26.33
2023-01-26T10:05:09.393Z,27.00
2023-01-26T10:07:37.744Z,24.20
2023-01-26T10:10:06.505Z,23.10
2023-01-26T10:12:37.446Z,23.50
2023-01-26T10:15:09.434Z,23.83
2023-01-26T10:17:42.056Z,22.57
2023-01-26T10:20:22.825Z,21.80
2023-01-26T10:22:55.291Z,28.03
2023-01-26T10:25:30.899Z,29.07
2023-01-26T10:27:59.039Z,27.43
2023-01-26T10:30:27.085Z,26.47
2023-01-26T10:32:57.341Z,26.27
2023-01-26T10:35:26.660Z,23.70
2023-01-26T10:37:54.780Z,22.67
2023-01-26T10:40:22.854Z,21.33
2023-01-26T10:42:59.024Z,24.73
2023-01-26T10:45:30.112Z,24.23
2023-01-26T10:48:12.335Z,22.97
2023-01-26T10:50:40.356Z,21.50
2023-01-26T10:53:19.111Z,22.30
2023-01-26T10:56:01.011Z,22.83
2023-01-26T10:58:49.557Z,21.73
2023-01-26T11:01:27.370Z,22.20
2023-01-26T11:04:06.889Z,22.73
2023-01-26T11:06:35.539Z,21.97
2023-01-26T11:09:11.416Z,22.47
2023-01-26T11:11:39.516Z,23.03
2023-01-26T11:14:16.515Z,22.17
2023-01-26T11:16:48.629Z,23.80
2023-01-26T11:19:33.966Z,21.97
2023-01-26T11:22:08.067Z,23.13
2023-01-26T11:24:42.737Z,22.17
2023-01-26T11:27:30.248Z,21.43
2023-01-26T11:30:32.323Z,22.93
2023-01-26T11:33:06.714Z,22.97
2023-01-26T11:35:47.045Z,22.73
2023-01-26T11:38:26.677Z,20.33
2023-01-26T11:41:07.427Z,20.90
2023-01-26T11:43:55.562Z,21.53
2023-01-26T11:46:45.360Z,21.37
2023-01-26T11:49:28.846Z,20.07
2023-01-26T11:52:10.473Z,19.97
2023-01-26T11:55:08.160Z,20.73
2023-01-26T11:57:42.752Z,19.97
2023-01-26T12:00:29.538Z,18.63
2023-01-26T12:03:03.808Z,18.57
2023-01-26T12:05:38.517Z,19.07
2023-01-26T12:08:16.274Z,18.03
2023-01-26T12:10:52.175Z,17.63
2023-01-26T12:13:32.071Z,19.00
2023-01-26T12:16:07.011Z,19.40
2023-01-26T12:18:53.260Z,21.30
2023-01-26T12:21:29.776Z,20.23
2023-01-26T12:24:02.630Z,20.90
2023-01-26T12:26:36.723Z,20.13
2023-01-26T12:29:12.486Z,22.33
2023-01-26T12:31:49.896Z,22.57
2023-01-26T12:34:17.964Z,21.87
2023-01-26T12:36:53.771Z,21.37
2023-01-26T12:39:30.654Z,21.80
2023-01-26T12:42:20.144Z,19.37
2023-01-26T12:44:54.499Z,18.80
2023-01-26T12:47:30.203Z,20.47
2023-01-26T12:50:01.467Z,19.10
2023-01-26T12:52:34.815Z,17.60
2023-01-26T12:55:13.441Z,18.53
2023-01-26T12:57:45.808Z,18.70
2023-01-26T13:00:21.210Z,17.60
2023-01-26T13:02:53.385Z,17.43
2023-01-26T13:05:27.410Z,17.87
2023-01-26T13:07:55.451Z,17.93
2023-01-26T13:10:28.736Z,18.80
2023-01-26T13:12:59.261Z,18.37
2023-01-26T13:15:28.925Z,18.97
2023-01-26T13:17:59.568Z,18.30
2023-01-26T13:20:50.038Z,19.43
2023-01-26T13:23:44.812Z,19.23
2023-01-26T13:26:42.459Z,18.17
2023-01-26T13:29:53.712Z,19.23
2023-01-26T13:32:52.449Z,19.53
2023-01-26T13:35:23.195Z,18.03
2023-01-26T13:37:58.164Z,19.93
2023-01-26T13:40:31.595Z,19.00
2023-01-26T13:43:14.569Z,19.97
2023-01-26T13:46:10.515Z,17.37
2023-01-26T13:48:47.286Z,19.07
2023-01-26T13:51:18.740Z,18.77
2023-01-26T13:53:50.828Z,18.40
2023-01-26T13:56:25.588Z,19.10
2023-01-26T13:58:55.477Z,19.03
2023-01-26T14:01:23.505Z,19.40
2023-01-26T14:04:04.372Z,18.43
2023-01-26T14:06:32.961Z,18.40
2023-01-26T14:09:00.938Z,21.23
2023-01-26T14:11:31.947Z,20.47
2023-01-26T14:14:03.256Z,22.00
2023-01-26T14:16:32.759Z,23.43
2023-01-26T14:19:13.783Z,21.10
2023-01-26T14:21:50.759Z,21.87
2023-01-26T14:24:21.053Z,22.47
2023-01-26T14:26:49.685Z,21.57
2023-01-26T14:29:23.451Z,22.97
2023-01-26T14:31:53.136Z,21.90
2023-01-26T14:34:23.996Z,21.97
2023-01-26T14:37:07.667Z,22.43
2023-01-26T14:39:35.788Z,22.00
2023-01-26T14:42:04.903Z,22.13
2023-01-26T14:44:34.281Z,22.70
2023-01-26T14:47:05.826Z,22.67
2023-01-26T14:49:43.996Z,23.47
2023-01-26T14:52:25.012Z,23.73
2023-01-26T14:54:54.553Z,24.77
2023-01-26T14:57:26.094Z,24.50
2023-01-26T14:59:57.802Z,27.33
2023-01-26T15:02:27.590Z,27.27
2023-01-26T15:05:01.489Z,26.17
2023-01-26T15:07:38.565Z,24.70
2023-01-26T15:10:36.348Z,24.53
2023-01-26T15:13:08.592Z,24.17
2023-01-26T15:15:39.903Z,23.73
2023-01-26T15:18:19.573Z,25.17
2023-01-26T15:21:00.701Z,24.23
2023-01-26T15:23:31.472Z,23.17
2023-01-26T15:26:07.327Z,24.50
2023-01-26T15:28:35.866Z,25.67
2023-01-26T15:31:05.849Z,24.77
2023-01-26T15:33:49.690Z,24.17
2023-01-26T15:36:51.112Z,24.83
2023-01-26T15:39:20.630Z,23.73
2023-01-26T15:42:02.740Z,24.93
2023-01-26T15:44:30.825Z,24.10
2023-01-26T15:47:00.212Z,23.70
2023-01-26T15:49:28.264Z,23.40
2023-01-26T15:51:56.221Z,21.90
2023-01-26T15:54:24.161Z,21.57
2023-01-26T15:56:52.168Z,21.07
2023-01-26T15:59:20.124Z,21.37
2023-01-26T16:01:48.173Z,21.00
2023-01-26T16:04:17.543Z,21.47
2023-01-26T16:06:45.487Z,21.33
2023-01-26T16:09:13.431Z,22.80
2023-01-26T16:11:47.492Z,23.63
2023-01-26T16:14:15.757Z,22.50
2023-01-26T16:16:43.933Z,21.27
2023-01-26T16:19:20.576Z,22.43
2023-01-26T16:21:55.846Z,22.17
2023-01-26T16:24:23.946Z,21.07
2023-01-26T16:26:51.890Z,20.40
2023-01-26T16:29:19.928Z,22.37
2023-01-26T16:31:47.904Z,23.17
2023-01-26T16:34:15.893Z,26.27
2023-01-26T16:36:43.883Z,24.27
2023-01-26T16:39:13.572Z,23.17
2023-01-26T16:41:41.641Z,24.83
2023-01-26T16:44:14.155Z,27.70
2023-01-26T16:46:42.744Z,26.83
2023-01-26T16:49:14.477Z,26.63
2023-01-26T16:51:44.062Z,24.43
2023-01-26T16:54:13.596Z,23.70
2023-01-26T16:56:42.351Z,23.13
2023-01-26T16:59:10.326Z,24.37
2023-01-26T17:01:39.871Z,25.33
2023-01-26T17:04:07.966Z,27.50
2023-01-26T17:06:35.966Z,26.10
2023-01-26T17:09:04.907Z,27.50
2023-01-26T17:11:34.291Z,25.27
2023-01-26T17:14:03.660Z,24.03
2023-01-26T17:16:33.081Z,23.50
2023-01-26T17:19:01.244Z,23.03
2023-01-26T17:21:29.201Z,26.33
2023-01-26T17:23:58.833Z,24.70
2023-01-26T17:26:26.955Z,26.27
2023-01-26T17:28:57.082Z,27.17
2023-01-26T17:31:25.905Z,27.67
2023-01-26T17:33:55.505Z,27.40
2023-01-26T17:36:23.469Z,27.87
2023-01-26T17:38:51.431Z,27.97
2023-01-26T17:41:19.391Z,27.37
2023-01-26T17:43:47.952Z,26.70
2023-01-26T17:46:18.648Z,26.40
2023-01-26T17:48:47.763Z,27.20
2023-01-26T17:51:17.613Z,27.00
2023-01-26T17:53:46.869Z,26.03
2023-01-26T17:56:17.004Z,27.23
2023-01-26T17:58:48.866Z,27.63
2023-01-26T18:01:18.766Z,27.60
2023-01-26T18:03:46.769Z,28.20
2023-01-26T18:06:14.773Z,28.87
2023-01-26T18:08:42.990Z,29.97
2023-01-26T18:11:12.737Z,27.93
2023-01-26T18:13:41.679Z,29.03
2023-01-26T18:16:11.213Z,29.30
2023-01-26T18:18:40.583Z,29.63
2023-01-26T18:21:13.028Z,28.10
2023-01-26T18:23:41.440Z,28.50
2023-01-26T18:26:09.496Z,24.60
2023-01-26T18:28:37.472Z,24.37
2023-01-26T18:31:12.652Z,25.63
2023-01-26T18:33:42.267Z,27.03
2023-01-26T18:36:12.573Z,27.47
2023-01-26T18:38:41.173Z,28.30
2023-01-26T18:41:12.250Z,27.70
2023-01-26T18:43:41.054Z,27.13
2023-01-26T18:46:09.816Z,32.83
2023-01-26T18:48:38.026Z,38.60
2023-01-26T18:51:08.670Z,36.93
2023-01-26T18:53:38.619Z,34.17
2023-01-26T18:56:08.434Z,34.53
2023-01-26T18:58:37.778Z,32.53
2023-01-26T19:01:09.677Z,32.37
2023-01-26T19:03:38.156Z,31.73
2023-01-26T19:06:07.877Z,33.70
2023-01-26T19:08:36.109Z,30.77
2023-01-26T19:11:08.024Z,27.23
2023-01-26T19:13:36.084Z,26.30
2023-01-26T19:16:04.914Z,25.27
2023-01-26T19:18:33.825Z,23.17
2023-01-26T19:21:03.111Z,23.23
2023-01-26T19:23:34.168Z,23.47
2023-01-26T19:26:02.105Z,24.53
2023-01-26T19:28:30.042Z,24.20
2023-01-26T19:31:04.354Z,25.40
2023-01-26T19:33:32.362Z,23.23
2023-01-26T19:36:02.796Z,25.67
2023-01-26T19:38:33.143Z,28.13
2023-01-26T19:41:02.167Z,28.70
2023-01-26T19:43:30.339Z,26.40
2023-01-26T19:45:58.719Z,27.50
2023-01-26T19:48:28.399Z,26.50
2023-01-26T19:51:02.112Z,26.93
2023-01-26T19:53:30.446Z,31.83
2023-01-26T19:56:00.683Z,35.10
2023-01-26T19:58:29.237Z,30.47
2023-01-26T20:01:01.556Z,30.17
2023-01-26T20:03:29.507Z,30.97
2023-01-26T20:05:57.795Z,32.07
2023-01-26T20:08:26.283Z,32.93
2023-01-26T20:10:54.399Z,29.17
2023-01-26T20:13:23.702Z,31.13
2023-01-26T20:15:51.648Z,28.03
2023-01-26T20:18:19.601Z,28.23
2023-01-26T20:20:50.816Z,25.70
2023-01-26T20:23:19.198Z,24.60
2023-01-26T20:25:47.974Z,24.40
2023-01-26T20:28:16.459Z,22.27
2023-01-26T20:30:46.199Z,21.70
2023-01-26T20:33:14.215Z,18.60
2023-01-26T20:35:43.704Z,19.33
2023-01-26T20:38:11.970Z,20.77
2023-01-26T20:40:40.537Z,21.13
2023-01-26T20:43:08.485Z,21.10
2023-01-26T20:45:36.533Z,22.73
2023-01-26T20:48:06.218Z,22.37
2023-01-26T20:50:40.051Z,24.03
2023-01-26T20:53:08.448Z,24.50
2023-01-26T20:55:36.618Z,26.33
2023-01-26T20:58:06.915Z,27.17
2023-01-26T21:00:36.080Z,25.97
2023-01-26T21:03:05.666Z,22.47
2023-01-26T21:05:33.681Z,24.17
2023-01-26T21:08:01.696Z,23.87
2023-01-26T21:10:29.681Z,25.20
2023-01-26T21:12:57.655Z,26.23
2023-01-26T21:15:25.599Z,24.87
2023-01-26T21:17:53.563Z,24.40
2023-01-26T21:20:22.860Z,24.80
2023-01-26T21:22:50.823Z,22.50
2023-01-26T21:25:18.771Z,21.67
2023-01-26T21:27:46.716Z,21.10
2023-01-26T21:30:15.316Z,21.17
2023-01-26T21:32:43.270Z,20.87
2023-01-26T21:35:13.726Z,20.70
2023-01-26T21:37:43.066Z,22.20
2023-01-26T21:40:12.570Z,22.47
2023-01-26T21:42:40.647Z,22.30
2023-01-26T21:45:27.648Z,22.10
2023-01-26T21:48:09.557Z,22.83
2023-01-26T21:50:56.025Z,23.33
2023-01-26T21:53:25.469Z,22.33
2023-01-26T21:55:53.408Z,23.67
2023-01-26T21:58:38.748Z,23.87
2023-01-26T22:01:07.778Z,23.80
2023-01-26T22:03:36.850Z,22.77
2023-01-26T22:06:05.596Z,24.03
2023-01-26T22:08:34.990Z,23.27
2023-01-26T22:11:03.007Z,22.57
2023-01-26T22:13:31.225Z,24.63
2023-01-26T22:16:03.938Z,25.00
2023-01-26T22:18:32.487Z,24.17
2023-01-26T22:21:00.574Z,25.57
2023-01-26T22:23:31.691Z,25.60
2023-01-26T22:26:01.271Z,25.43
2023-01-26T22:28:29.258Z,24.77
2023-01-26T22:31:03.080Z,26.57
2023-01-26T22:33:31.583Z,25.77
2023-01-26T22:36:04.383Z,26.83
2023-01-26T22:38:33.059Z,27.00
2023-01-26T22:41:02.758Z,27.50
2023-01-26T22:43:31.652Z,27.60
2023-01-26T22:46:04.039Z,27.87
2023-01-26T22:48:32.715Z,28.83
2023-01-26T22:51:07.868Z,30.77
2023-01-26T22:53:36.086Z,29.73
2023-01-26T22:56:06.378Z,28.90
2023-01-26T22:58:39.765Z,30.87
2023-01-26T23:01:16.908Z,30.47
2023-01-26T23:03:45.618Z,32.90
2023-01-26T23:06:15.748Z,33.80
2023-01-26T23:08:43.858Z,34.70
2023-01-26T23:11:15.209Z,35.13
2023-01-26T23:13:44.273Z,35.87
2023-01-26T23:16:13.241Z,34.57
2023-01-26T23:18:41.600Z,36.10
2023-01-26T23:21:09.778Z,36.53
2023-01-26T23:23:39.533Z,35.83
2023-01-26T23:26:08.138Z,36.77
2023-01-26T23:28:40.040Z,36.60
2023-01-26T23:31:09.275Z,36.80
2023-01-26T23:33:38.502Z,37.90
2023-01-26T23:36:07.831Z,38.47
2023-01-26T23:38:36.110Z,40.13
2023-01-26T23:41:05.555Z,42.57
2023-01-26T23:43:33.825Z,41.33
2023-01-26T23:46:03.366Z,39.80
2023-01-26T23:48:31.622Z,40.97
2023-01-26T23:51:00.657Z,42.97
2023-01-26T23:53:30.659Z,41.47
2023-01-26T23:55:59.995Z,43.83
2023-01-26T23:58:28.570Z,42.97
